createdAt,value
2018-04-18T00:00:11.525Z,100744.60
2018-04-18T00:06:15.933Z,100742.86
2018-04-18T00:12:20.306Z,100738.33
2018-04-18T00:18:24.700Z,100742.64
2018-04-18T00:24:29.114Z,100746.61
2018-04-18T00:30:33.499Z,100750.12
2018-04-18T00:36:37.911Z,100755.58
2018-04-18T00:42:42.858Z,100749.42
2018-04-18T00:48:47.308Z,100752.89
2018-04-18T00:54:51.691Z,100757.34
2018-04-18T01:00:56.080Z,100755.91
2018-04-18T01:07:00.550Z,100749.88
2018-04-18T01:13:04.928Z,100757.66
2018-04-18T01:19:09.446Z,100757.62
2018-04-18T01:25:14.676Z,100762.23
2018-04-18T01:31:19.894Z,100755.70
2018-04-18T01:37:24.265Z,100757.84
2018-04-18T01:43:28.631Z,100754.87
2018-04-18T01:49:33.771Z,100757.36
2018-04-18T01:55:38.139Z,100761.36
2018-04-18T02:01:42.547Z,100771.08
2018-04-18T02:07:46.927Z,100769.42
2018-04-18T02:13:51.324Z,100779.06
2018-04-18T02:19:56.638Z,100777.51
2018-04-18T02:26:01.007Z,100789.48
2018-04-18T02:32:05.389Z,100794.34
2018-04-18T02:38:10.287Z,100804.85
2018-04-18T02:44:14.762Z,100806.78
2018-04-18T02:50:19.142Z,100817.45
2018-04-18T02:56:23.502Z,100811.84
2018-04-18T03:02:27.979Z,100811.42
2018-04-18T03:08:33.178Z,100813.09
2018-04-18T03:14:37.576Z,100822.23
2018-04-18T03:20:43.475Z,100831.48
2018-04-18T03:26:47.855Z,100832.41
2018-04-18T03:32:52.228Z,100828.04
2018-04-18T03:38:56.680Z,100829.55
2018-04-18T03:45:01.056Z,100829.95
2018-04-18T03:51:05.546Z,100846.53
2018-04-18T03:57:10.536Z,100851.38
2018-04-18T04:03:15.096Z,100845.25
2018-04-18T04:09:19.478Z,100853.30
2018-04-18T04:15:23.872Z,100856.77
2018-04-18T04:28:12.632Z,100863.55
2018-04-18T04:34:17.022Z,100875.77
2018-04-18T04:40:21.430Z,100875.80
2018-04-18T04:46:25.826Z,100880.39
2018-04-18T04:52:30.990Z,100884.70
2018-04-18T04:58:35.379Z,100893.10
2018-04-18T05:04:40.037Z,100906.12
2018-04-18T05:10:44.530Z,100923.35
2018-04-18T05:16:48.966Z,100922.66
2018-04-18T05:22:53.383Z,100925.81
2018-04-18T05:28:57.826Z,100928.94
2018-04-18T05:35:02.235Z,100943.03
2018-04-18T05:41:06.696Z,100953.83
2018-04-18T05:47:11.398Z,100959.37
2018-04-18T05:53:15.936Z,100966.07
2018-04-18T05:59:20.354Z,100971.17
2018-04-18T06:05:24.807Z,100971.66
2018-04-18T06:11:29.276Z,100983.13
2018-04-18T06:17:33.692Z,100985.38
2018-04-18T06:23:38.865Z,100986.02
2018-04-18T06:29:43.301Z,101003.09
2018-04-18T06:35:47.714Z,100996.66
2018-04-18T06:41:52.108Z,101004.22
2018-04-18T06:47:57.422Z,101005.95
2018-04-18T06:54:02.663Z,101008.15
2018-04-18T07:00:07.076Z,101004.38
2018-04-18T07:06:11.515Z,101008.17
2018-04-18T07:12:19.148Z,101016.71
2018-04-18T07:18:36.377Z,101025.18
2018-04-18T07:41:00.175Z,101035.19
2018-04-18T07:53:43.894Z,101033.73
2018-04-18T07:59:54.427Z,101035.37
2018-04-18T08:06:25.001Z,101049.64
2018-04-18T08:38:52.677Z,101058.92
2018-04-18T08:45:11.414Z,101059.50
2018-04-18T08:51:41.770Z,101060.98
2018-04-18T09:07:46.501Z,101051.59
2018-04-18T09:14:11.253Z,101045.53
2018-04-18T09:43:08.629Z,101029.44
2018-04-18T09:49:27.820Z,101022.03
2018-04-18T09:55:50.667Z,101026.97
2018-04-18T10:15:49.130Z,101020.41
2018-04-18T10:42:13.855Z,101026.15
2018-04-18T10:48:18.224Z,101006.00
2018-04-18T10:54:22.591Z,101008.21
2018-04-18T11:00:26.965Z,101005.47
2018-04-18T11:06:31.350Z,101004.17
2018-04-18T11:12:35.764Z,100996.92
2018-04-18T11:18:40.888Z,100998.56
2018-04-18T11:24:45.386Z,100990.28
2018-04-18T11:30:49.757Z,100983.89
2018-04-18T11:36:54.923Z,100982.97
2018-04-18T11:42:59.335Z,100978.58
2018-04-18T11:49:03.705Z,100968.09
2018-04-18T11:55:08.129Z,100981.76
2018-04-18T12:01:12.752Z,100974.76
2018-04-18T12:07:17.906Z,100970.55
2018-04-18T12:13:22.277Z,100969.28
2018-04-18T12:19:26.666Z,100959.10
2018-04-18T12:25:31.903Z,100957.59
2018-04-18T12:31:36.395Z,100957.77
2018-04-18T12:37:41.040Z,100962.31
2018-04-18T12:43:45.487Z,100947.68
2018-04-18T12:49:49.835Z,100945.14
2018-04-18T12:55:54.980Z,100938.14
2018-04-18T13:02:00.168Z,100948.05
2018-04-18T13:08:04.594Z,100937.94
2018-04-18T13:14:08.965Z,100933.64
2018-04-18T13:20:13.709Z,100924.43
2018-04-18T13:26:18.859Z,100917.56
2018-04-18T13:32:23.233Z,100919.05
2018-04-18T13:38:27.594Z,100911.96
2018-04-18T13:44:32.061Z,100913.05
2018-04-18T13:50:36.426Z,100911.77
2018-04-18T13:56:41.583Z,100900.28
2018-04-18T14:02:45.999Z,100896.84
2018-04-18T14:08:50.617Z,100901.92
2018-04-18T14:14:54.985Z,100899.20
2018-04-18T14:20:59.346Z,100899.05
2018-04-18T14:27:03.726Z,100893.81
2018-04-18T14:33:08.177Z,100896.11
2018-04-18T14:39:12.547Z,100882.22
2018-04-18T14:45:17.687Z,100885.80
2018-04-18T14:51:22.950Z,100881.48
2018-04-18T14:57:27.318Z,100870.77
2018-04-18T15:03:31.693Z,100864.11
2018-04-18T15:09:36.069Z,100863.59
2018-04-18T15:15:41.710Z,100863.59
2018-04-18T15:21:46.094Z,100857.26
2018-04-18T15:27:50.448Z,100861.70
2018-04-18T15:33:54.851Z,100856.44
2018-04-18T15:39:59.290Z,100857.34
2018-04-18T15:46:03.639Z,100850.83
2018-04-18T15:52:08.019Z,100851.81
2018-04-18T15:58:12.652Z,100846.00
2018-04-18T16:04:17.055Z,100840.77
2018-04-18T16:10:22.203Z,100847.08
2018-04-18T16:16:26.569Z,100835.48
2018-04-18T16:22:30.943Z,100828.45
2018-04-18T16:28:35.339Z,100832.38
2018-04-18T16:34:39.836Z,100833.27
2018-04-18T16:40:45.087Z,100824.59
2018-04-18T16:46:49.546Z,100824.91
2018-04-18T16:52:53.959Z,100824.95
2018-04-18T16:58:58.456Z,100820.83
2018-04-18T17:05:02.826Z,100815.75
2018-04-18T17:11:07.255Z,100817.50
2018-04-18T17:17:11.930Z,100811.45
2018-04-18T17:23:16.412Z,100811.27
2018-04-18T17:29:21.540Z,100812.64
2018-04-18T17:35:26.304Z,100810.14
2018-04-18T17:41:30.763Z,100814.50
2018-04-18T17:47:35.126Z,100818.12
2018-04-18T17:53:40.267Z,100822.84
2018-04-18T17:59:44.641Z,100812.97
2018-04-18T18:05:49.088Z,100825.53
2018-04-18T18:11:53.443Z,100823.70
2018-04-18T18:17:58.593Z,100836.86
2018-04-18T18:24:03.014Z,100843.59
2018-04-18T18:30:07.400Z,100846.70
2018-04-18T18:36:11.979Z,100855.98
2018-04-18T18:42:16.350Z,100850.48
2018-04-18T18:48:20.719Z,100864.72
2018-04-18T18:54:25.087Z,100869.12
2018-04-18T19:00:30.223Z,100873.61
2018-04-18T19:06:34.665Z,100883.97
2018-04-18T19:12:39.883Z,100887.48
2018-04-18T19:18:45.797Z,100887.73
2018-04-18T19:24:50.172Z,100890.68
2018-04-18T19:30:54.535Z,100895.46
2018-04-18T19:36:58.917Z,100905.14
2018-04-18T19:43:03.278Z,100902.73
2018-04-18T19:49:07.667Z,100901.63
2018-04-18T19:55:12.173Z,100899.55
2018-04-18T20:01:16.694Z,100903.72
2018-04-18T20:07:21.114Z,100905.66
2018-04-18T20:13:25.495Z,100912.25
2018-04-18T20:19:29.938Z,100906.52
2018-04-18T20:25:34.315Z,100897.37
2018-04-18T20:31:38.911Z,100912.24
2018-04-18T20:37:44.374Z,100912.36
2018-04-18T20:43:48.882Z,100902.77
2018-04-18T20:49:53.386Z,100913.78
2018-04-18T20:55:57.764Z,100915.67
2018-04-18T21:02:02.127Z,100921.31
2018-04-18T21:08:06.500Z,100923.83
2018-04-18T21:14:10.976Z,100927.29
2018-04-18T21:20:15.606Z,100933.87
2018-04-18T21:26:20.764Z,100941.58
2018-04-18T21:32:25.144Z,100937.83
2018-04-18T21:38:29.583Z,100939.33
2018-04-18T21:44:34.696Z,100944.68
2018-04-18T21:50:39.093Z,100949.31
2018-04-18T21:56:43.551Z,100956.99
2018-04-18T22:02:48.036Z,100956.40
2018-04-18T22:08:52.450Z,100955.80
2018-04-18T22:14:57.595Z,100969.14
2018-04-18T22:21:02.039Z,100967.62
2018-04-18T22:27:06.440Z,100971.31
2018-04-18T22:33:10.828Z,100970.18
2018-04-18T22:39:15.406Z,100965.08
2018-04-18T22:45:19.804Z,100971.94
2018-04-18T22:51:24.213Z,100971.69
2018-04-18T22:57:28.620Z,100973.77
2018-04-18T23:03:33.000Z,100975.11
2018-04-18T23:09:37.381Z,100977.62
2018-04-18T23:15:42.411Z,100973.82
2018-04-18T23:21:46.929Z,100971.81
2018-04-18T23:27:51.354Z,100964.14
2018-04-18T23:33:55.715Z,100972.28
2018-04-18T23:40:00.083Z,100974.49
2018-04-18T23:46:04.515Z,100968.01
2018-04-18T23:52:08.999Z,100968.10
2018-04-18T23:58:13.376Z,100971.86
